sensor_id;sensor_type;location;lat;lon;timestamp;P1;durP1;ratioP1;P2;durP2;ratioP2
21430;SDS011;10876;49.038;10.608;2023-10-09T00:00:52;4.85;;;2.40;;
21430;SDS011;10876;49.038;10.608;2023-10-09T00:03:28;8.13;;;2.75;;
21430;SDS011;10876;49.038;10.608;2023-10-09T00:06:10;4.47;;;2.63;;
21430;SDS011;10876;49.038;10.608;2023-10-09T00:08:42;4.47;;;2.47;;
21430;SDS011;10876;49.038;10.608;2023-10-09T00:11:11;6.15;;;2.45;;
21430;SDS011;10876;49.038;10.608;2023-10-09T00:14:00;4.97;;;2.63;;
21430;SDS011;10876;49.038;10.608;2023-10-09T00:16:37;5.97;;;2.40;;
21430;SDS011;10876;49.038;10.608;2023-10-09T00:19:10;4.20;;;2.55;;
21430;SDS011;10876;49.038;10.608;2023-10-09T00:21:48;5.28;;;2.75;;
21430;SDS011;10876;49.038;10.608;2023-10-09T00:24:16;2.42;;;2.10;;
21430;SDS011;10876;49.038;10.608;2023-10-09T00:26:53;5.40;;;2.35;;
21430;SDS011;10876;49.038;10.608;2023-10-09T00:29:30;4.63;;;2.08;;
21430;SDS011;10876;49.038;10.608;2023-10-09T00:32:02;4.47;;;2.33;;
21430;SDS011;10876;49.038;10.608;2023-10-09T00:34:39;3.50;;;2.13;;
21430;SDS011;10876;49.038;10.608;2023-10-09T00:37:09;2.78;;;1.80;;
21430;SDS011;10876;49.038;10.608;2023-10-09T00:39:43;2.60;;;1.55;;
21430;SDS011;10876;49.038;10.608;2023-10-09T00:42:11;3.22;;;1.48;;
21430;SDS011;10876;49.038;10.608;2023-10-09T00:44:51;1.27;;;1.17;;
21430;SDS011;10876;49.038;10.608;2023-10-09T00:47:35;2.03;;;1.20;;
21430;SDS011;10876;49.038;10.608;2023-10-09T00:50:08;3.20;;;1.90;;
21430;SDS011;10876;49.038;10.608;2023-10-09T00:52:51;2.17;;;1.55;;
21430;SDS011;10876;49.038;10.608;2023-10-09T00:55:35;1.13;;;1.05;;
21430;SDS011;10876;49.038;10.608;2023-10-09T00:58:22;1.75;;;1.08;;
21430;SDS011;10876;49.038;10.608;2023-10-09T01:00:53;8.00;;;2.55;;
21430;SDS011;10876;49.038;10.608;2023-10-09T01:03:24;7.38;;;2.63;;
21430;SDS011;10876;49.038;10.608;2023-10-09T01:05:55;5.47;;;2.40;;
21430;SDS011;10876;49.038;10.608;2023-10-09T01:08:43;2.58;;;1.60;;
21430;SDS011;10876;49.038;10.608;2023-10-09T01:11:36;3.10;;;1.95;;
21430;SDS011;10876;49.038;10.608;2023-10-09T01:14:14;8.05;;;1.67;;
21430;SDS011;10876;49.038;10.608;2023-10-09T01:16:42;2.35;;;1.80;;
21430;SDS011;10876;49.038;10.608;2023-10-09T01:19:12;3.95;;;2.55;;
21430;SDS011;10876;49.038;10.608;2023-10-09T01:24:53;5.15;;;2.00;;
21430;SDS011;10876;49.038;10.608;2023-10-09T01:27:22;2.85;;;1.85;;
21430;SDS011;10876;49.038;10.608;2023-10-09T01:29:59;2.15;;;1.50;;
21430;SDS011;10876;49.038;10.608;2023-10-09T01:32:28;4.82;;;2.17;;
21430;SDS011;10876;49.038;10.608;2023-10-09T01:35:01;4.28;;;1.92;;
21430;SDS011;10876;49.038;10.608;2023-10-09T01:37:41;3.38;;;1.95;;
21430;SDS011;10876;49.038;10.608;2023-10-09T01:40:18;3.85;;;2.25;;
21430;SDS011;10876;49.038;10.608;2023-10-09T01:42:55;2.45;;;1.65;;
21430;SDS011;10876;49.038;10.608;2023-10-09T01:45:25;5.35;;;1.50;;
21430;SDS011;10876;49.038;10.608;2023-10-09T01:47:55;3.53;;;1.60;;
21430;SDS011;10876;49.038;10.608;2023-10-09T01:50:24;3.10;;;1.58;;
21430;SDS011;10876;49.038;10.608;2023-10-09T01:52:58;3.30;;;1.90;;
21430;SDS011;10876;49.038;10.608;2023-10-09T01:55:49;6.78;;;1.52;;
21430;SDS011;10876;49.038;10.608;2023-10-09T01:58:20;3.17;;;1.67;;
21430;SDS011;10876;49.038;10.608;2023-10-09T02:00:55;4.93;;;2.40;;
21430;SDS011;10876;49.038;10.608;2023-10-09T02:03:25;3.78;;;1.70;;
21430;SDS011;10876;49.038;10.608;2023-10-09T02:05:55;2.75;;;1.67;;
21430;SDS011;10876;49.038;10.608;2023-10-09T02:08:44;4.10;;;2.03;;
21430;SDS011;10876;49.038;10.608;2023-10-09T02:11:19;3.83;;;1.70;;
21430;SDS011;10876;49.038;10.608;2023-10-09T02:13:50;5.05;;;1.92;;
21430;SDS011;10876;49.038;10.608;2023-10-09T02:16:26;4.32;;;1.88;;
21430;SDS011;10876;49.038;10.608;2023-10-09T02:18:58;3.20;;;2.10;;
21430;SDS011;10876;49.038;10.608;2023-10-09T02:21:33;3.55;;;2.58;;
21430;SDS011;10876;49.038;10.608;2023-10-09T02:24:06;4.90;;;2.17;;
21430;SDS011;10876;49.038;10.608;2023-10-09T02:26:56;5.28;;;2.90;;
21430;SDS011;10876;49.038;10.608;2023-10-09T02:29:38;5.10;;;2.92;;
21430;SDS011;10876;49.038;10.608;2023-10-09T02:32:07;3.60;;;2.40;;
21430;SDS011;10876;49.038;10.608;2023-10-09T02:34:50;4.68;;;2.30;;
21430;SDS011;10876;49.038;10.608;2023-10-09T02:37:19;4.13;;;2.40;;
21430;SDS011;10876;49.038;10.608;2023-10-09T02:39:50;4.47;;;2.45;;
21430;SDS011;10876;49.038;10.608;2023-10-09T02:42:32;6.88;;;2.63;;
21430;SDS011;10876;49.038;10.608;2023-10-09T02:45:01;6.43;;;2.67;;
21430;SDS011;10876;49.038;10.608;2023-10-09T02:47:29;5.95;;;3.05;;
21430;SDS011;10876;49.038;10.608;2023-10-09T02:49:56;4.30;;;2.42;;
21430;SDS011;10876;49.038;10.608;2023-10-09T02:52:33;5.28;;;2.65;;
21430;SDS011;10876;49.038;10.608;2023-10-09T02:55:07;7.07;;;2.88;;
21430;SDS011;10876;49.038;10.608;2023-10-09T02:57:41;4.25;;;2.95;;
21430;SDS011;10876;49.038;10.608;2023-10-09T03:00:12;4.82;;;2.53;;
21430;SDS011;10876;49.038;10.608;2023-10-09T03:02:45;5.90;;;2.95;;
21430;SDS011;10876;49.038;10.608;2023-10-09T03:05:18;8.18;;;2.92;;
21430;SDS011;10876;49.038;10.608;2023-10-09T03:07:59;4.35;;;2.70;;
21430;SDS011;10876;49.038;10.608;2023-10-09T03:10:27;10.10;;;2.85;;
21430;SDS011;10876;49.038;10.608;2023-10-09T03:13:02;4.32;;;2.72;;
21430;SDS011;10876;49.038;10.608;2023-10-09T03:15:32;7.00;;;2.53;;
21430;SDS011;10876;49.038;10.608;2023-10-09T03:18:02;3.95;;;2.17;;
21430;SDS011;10876;49.038;10.608;2023-10-09T03:20:40;7.00;;;2.58;;
21430;SDS011;10876;49.038;10.608;2023-10-09T03:23:11;7.75;;;3.08;;
21430;SDS011;10876;49.038;10.608;2023-10-09T03:25:39;5.45;;;3.25;;
21430;SDS011;10876;49.038;10.608;2023-10-09T03:28:15;8.93;;;2.65;;
21430;SDS011;10876;49.038;10.608;2023-10-09T03:30:42;5.40;;;2.72;;
21430;SDS011;10876;49.038;10.608;2023-10-09T03:33:14;4.93;;;2.58;;
21430;SDS011;10876;49.038;10.608;2023-10-09T03:35:42;4.00;;;2.00;;
21430;SDS011;10876;49.038;10.608;2023-10-09T03:38:09;4.50;;;2.58;;
21430;SDS011;10876;49.038;10.608;2023-10-09T03:40:44;4.47;;;2.45;;
21430;SDS011;10876;49.038;10.608;2023-10-09T03:43:16;5.35;;;2.45;;
21430;SDS011;10876;49.038;10.608;2023-10-09T03:48:59;6.15;;;3.03;;
21430;SDS011;10876;49.038;10.608;2023-10-09T03:51:28;7.28;;;3.55;;
21430;SDS011;10876;49.038;10.608;2023-10-09T03:56:47;9.63;;;3.13;;
21430;SDS011;10876;49.038;10.608;2023-10-09T03:59:23;4.15;;;3.03;;
21430;SDS011;10876;49.038;10.608;2023-10-09T04:01:57;5.35;;;2.67;;
21430;SDS011;10876;49.038;10.608;2023-10-09T04:07:12;7.35;;;2.90;;
21430;SDS011;10876;49.038;10.608;2023-10-09T04:09:43;6.53;;;3.03;;
21430;SDS011;10876;49.038;10.608;2023-10-09T04:12:13;4.25;;;2.22;;
21430;SDS011;10876;49.038;10.608;2023-10-09T04:14:49;5.03;;;2.72;;
21430;SDS011;10876;49.038;10.608;2023-10-09T04:17:23;6.95;;;2.72;;
21430;SDS011;10876;49.038;10.608;2023-10-09T04:20:00;5.30;;;2.90;;
21430;SDS011;10876;49.038;10.608;2023-10-09T04:22:48;3.13;;;1.95;;
21430;SDS011;10876;49.038;10.608;2023-10-09T04:25:28;6.72;;;2.67;;
21430;SDS011;10876;49.038;10.608;2023-10-09T04:27:56;4.60;;;2.30;;
21430;SDS011;10876;49.038;10.608;2023-10-09T04:30:39;4.25;;;2.67;;
21430;SDS011;10876;49.038;10.608;2023-10-09T04:33:08;4.03;;;2.63;;
21430;SDS011;10876;49.038;10.608;2023-10-09T04:35:54;3.08;;;2.10;;
21430;SDS011;10876;49.038;10.608;2023-10-09T04:38:39;5.32;;;2.30;;
21430;SDS011;10876;49.038;10.608;2023-10-09T04:41:19;5.50;;;2.50;;
21430;SDS011;10876;49.038;10.608;2023-10-09T04:43:54;3.67;;;2.53;;
21430;SDS011;10876;49.038;10.608;2023-10-09T04:49:38;4.07;;;2.72;;
21430;SDS011;10876;49.038;10.608;2023-10-09T04:52:30;5.82;;;2.17;;
21430;SDS011;10876;49.038;10.608;2023-10-09T04:55:18;7.05;;;2.97;;
21430;SDS011;10876;49.038;10.608;2023-10-09T04:57:51;7.28;;;3.30;;
21430;SDS011;10876;49.038;10.608;2023-10-09T05:00:41;6.20;;;2.30;;
21430;SDS011;10876;49.038;10.608;2023-10-09T05:03:29;5.00;;;2.35;;
21430;SDS011;10876;49.038;10.608;2023-10-09T05:06:11;8.43;;;2.67;;
21430;SDS011;10876;49.038;10.608;2023-10-09T05:09:09;7.28;;;2.60;;
21430;SDS011;10876;49.038;10.608;2023-10-09T05:11:40;6.57;;;1.77;;
21430;SDS011;10876;49.038;10.608;2023-10-09T05:14:25;4.65;;;2.63;;
21430;SDS011;10876;49.038;10.608;2023-10-09T05:17:10;5.28;;;2.72;;
21430;SDS011;10876;49.038;10.608;2023-10-09T05:19:43;5.93;;;2.75;;
21430;SDS011;10876;49.038;10.608;2023-10-09T05:22:46;4.28;;;2.00;;
21430;SDS011;10876;49.038;10.608;2023-10-09T05:25:40;12.10;;;3.45;;
21430;SDS011;10876;49.038;10.608;2023-10-09T05:28:24;6.13;;;3.15;;
21430;SDS011;10876;49.038;10.608;2023-10-09T05:31:20;4.97;;;2.42;;
21430;SDS011;10876;49.038;10.608;2023-10-09T05:34:05;6.20;;;2.70;;
21430;SDS011;10876;49.038;10.608;2023-10-09T05:36:46;3.83;;;2.95;;
21430;SDS011;10876;49.038;10.608;2023-10-09T05:39:17;5.70;;;2.33;;
21430;SDS011;10876;49.038;10.608;2023-10-09T05:41:51;7.10;;;2.65;;
21430;SDS011;10876;49.038;10.608;2023-10-09T05:44:28;3.22;;;2.13;;
21430;SDS011;10876;49.038;10.608;2023-10-09T05:47:14;5.28;;;2.33;;
21430;SDS011;10876;49.038;10.608;2023-10-09T05:50:03;5.85;;;2.58;;
21430;SDS011;10876;49.038;10.608;2023-10-09T05:52:54;5.30;;;2.58;;
21430;SDS011;10876;49.038;10.608;2023-10-09T05:55:37;4.60;;;2.90;;
21430;SDS011;10876;49.038;10.608;2023-10-09T05:58:25;4.18;;;2.60;;
21430;SDS011;10876;49.038;10.608;2023-10-09T06:01:06;6.80;;;3.20;;
21430;SDS011;10876;49.038;10.608;2023-10-09T06:03:54;5.07;;;2.35;;
21430;SDS011;10876;49.038;10.608;2023-10-09T06:06:30;9.88;;;3.00;;
21430;SDS011;10876;49.038;10.608;2023-10-09T06:09:11;10.82;;;2.90;;
21430;SDS011;10876;49.038;10.608;2023-10-09T06:11:58;6.68;;;2.55;;
21430;SDS011;10876;49.038;10.608;2023-10-09T06:14:46;6.30;;;2.30;;
21430;SDS011;10876;49.038;10.608;2023-10-09T06:17:24;6.47;;;2.72;;
21430;SDS011;10876;49.038;10.608;2023-10-09T06:19:54;11.45;;;3.40;;
21430;SDS011;10876;49.038;10.608;2023-10-09T06:22:48;4.38;;;2.35;;
21430;SDS011;10876;49.038;10.608;2023-10-09T06:25:24;5.82;;;2.95;;
21430;SDS011;10876;49.038;10.608;2023-10-09T06:28:00;9.43;;;3.10;;
21430;SDS011;10876;49.038;10.608;2023-10-09T06:30:29;5.47;;;2.47;;
21430;SDS011;10876;49.038;10.608;2023-10-09T06:33:08;9.35;;;2.55;;
21430;SDS011;10876;49.038;10.608;2023-10-09T06:35:56;8.50;;;2.90;;
21430;SDS011;10876;49.038;10.608;2023-10-09T06:38:33;7.65;;;1.77;;
21430;SDS011;10876;49.038;10.608;2023-10-09T06:41:20;5.88;;;2.22;;
21430;SDS011;10876;49.038;10.608;2023-10-09T06:44:10;5.38;;;2.30;;
21430;SDS011;10876;49.038;10.608;2023-10-09T06:46:58;7.25;;;2.40;;
21430;SDS011;10876;49.038;10.608;2023-10-09T06:49:34;3.33;;;1.70;;
21430;SDS011;10876;49.038;10.608;2023-10-09T06:52:03;5.35;;;2.40;;
21430;SDS011;10876;49.038;10.608;2023-10-09T06:54:47;5.72;;;2.15;;
21430;SDS011;10876;49.038;10.608;2023-10-09T06:57:22;4.63;;;2.00;;
21430;SDS011;10876;49.038;10.608;2023-10-09T07:00:16;5.75;;;2.53;;
21430;SDS011;10876;49.038;10.608;2023-10-09T07:03:01;7.72;;;2.15;;
21430;SDS011;10876;49.038;10.608;2023-10-09T07:05:37;4.78;;;1.95;;
21430;SDS011;10876;49.038;10.608;2023-10-09T07:08:26;6.97;;;2.50;;
21430;SDS011;10876;49.038;10.608;2023-10-09T07:11:03;5.55;;;1.85;;
21430;SDS011;10876;49.038;10.608;2023-10-09T07:13:47;9.20;;;2.47;;
21430;SDS011;10876;49.038;10.608;2023-10-09T07:16:28;5.38;;;2.40;;
21430;SDS011;10876;49.038;10.608;2023-10-09T07:19:05;6.38;;;1.83;;
21430;SDS011;10876;49.038;10.608;2023-10-09T07:21:52;3.80;;;2.30;;
21430;SDS011;10876;49.038;10.608;2023-10-09T07:24:19;6.00;;;2.50;;
21430;SDS011;10876;49.038;10.608;2023-10-09T07:26:50;6.07;;;1.80;;
21430;SDS011;10876;49.038;10.608;2023-10-09T07:29:21;9.45;;;2.20;;
21430;SDS011;10876;49.038;10.608;2023-10-09T07:31:51;5.85;;;2.05;;
21430;SDS011;10876;49.038;10.608;2023-10-09T07:34:39;8.07;;;2.47;;
21430;SDS011;10876;49.038;10.608;2023-10-09T07:37:25;16.30;;;3.17;;
21430;SDS011;10876;49.038;10.608;2023-10-09T07:39:57;8.38;;;1.95;;
21430;SDS011;10876;49.038;10.608;2023-10-09T07:42:24;9.32;;;2.40;;
21430;SDS011;10876;49.038;10.608;2023-10-09T07:45:11;3.85;;;1.85;;
21430;SDS011;10876;49.038;10.608;2023-10-09T07:48:00;6.40;;;1.95;;
21430;SDS011;10876;49.038;10.608;2023-10-09T07:50:34;6.45;;;2.25;;
21430;SDS011;10876;49.038;10.608;2023-10-09T07:53:06;5.97;;;2.55;;
21430;SDS011;10876;49.038;10.608;2023-10-09T07:55:53;11.10;;;2.08;;
21430;SDS011;10876;49.038;10.608;2023-10-09T07:58:35;7.95;;;3.17;;
21430;SDS011;10876;49.038;10.608;2023-10-09T08:01:13;9.65;;;2.35;;
21430;SDS011;10876;49.038;10.608;2023-10-09T08:03:50;6.35;;;2.10;;
21430;SDS011;10876;49.038;10.608;2023-10-09T08:06:29;7.25;;;2.55;;
21430;SDS011;10876;49.038;10.608;2023-10-09T08:09:05;7.63;;;2.70;;
21430;SDS011;10876;49.038;10.608;2023-10-09T08:12:11;5.97;;;2.38;;
21430;SDS011;10876;49.038;10.608;2023-10-09T08:15:00;6.43;;;1.90;;
21430;SDS011;10876;49.038;10.608;2023-10-09T08:17:46;10.07;;;2.63;;
21430;SDS011;10876;49.038;10.608;2023-10-09T08:20:20;5.68;;;2.30;;
21430;SDS011;10876;49.038;10.608;2023-10-09T08:22:51;12.18;;;2.70;;
21430;SDS011;10876;49.038;10.608;2023-10-09T08:25:20;9.18;;;2.70;;
21430;SDS011;10876;49.038;10.608;2023-10-09T08:27:58;14.40;;;2.85;;
21430;SDS011;10876;49.038;10.608;2023-10-09T08:30:43;9.98;;;2.40;;
21430;SDS011;10876;49.038;10.608;2023-10-09T08:33:53;9.82;;;2.25;;
21430;SDS011;10876;49.038;10.608;2023-10-09T08:36:26;7.70;;;2.92;;
21430;SDS011;10876;49.038;10.608;2023-10-09T08:38:53;8.35;;;3.08;;
21430;SDS011;10876;49.038;10.608;2023-10-09T08:41:25;12.57;;;2.35;;
21430;SDS011;10876;49.038;10.608;2023-10-09T08:43:56;7.07;;;1.90;;
21430;SDS011;10876;49.038;10.608;2023-10-09T08:46:28;5.68;;;1.80;;
21430;SDS011;10876;49.038;10.608;2023-10-09T08:48:57;9.82;;;2.22;;
21430;SDS011;10876;49.038;10.608;2023-10-09T08:51:28;4.43;;;1.80;;
21430;SDS011;10876;49.038;10.608;2023-10-09T08:53:58;3.08;;;1.48;;
21430;SDS011;10876;49.038;10.608;2023-10-09T08:56:25;9.40;;;2.35;;
21430;SDS011;10876;49.038;10.608;2023-10-09T08:58:57;7.53;;;2.38;;
21430;SDS011;10876;49.038;10.608;2023-10-09T09:01:24;3.58;;;1.92;;
21430;SDS011;10876;49.038;10.608;2023-10-09T09:03:58;7.68;;;2.55;;
21430;SDS011;10876;49.038;10.608;2023-10-09T09:06:35;7.40;;;2.08;;
21430;SDS011;10876;49.038;10.608;2023-10-09T09:09:11;3.80;;;1.98;;
21430;SDS011;10876;49.038;10.608;2023-10-09T09:11:42;12.95;;;1.85;;
21430;SDS011;10876;49.038;10.608;2023-10-09T09:14:15;8.98;;;1.98;;
21430;SDS011;10876;49.038;10.608;2023-10-09T09:16:49;5.95;;;2.28;;
21430;SDS011;10876;49.038;10.608;2023-10-09T09:19:18;6.32;;;1.98;;
21430;SDS011;10876;49.038;10.608;2023-10-09T09:21:52;5.28;;;2.05;;
21430;SDS011;10876;49.038;10.608;2023-10-09T09:24:25;7.50;;;2.00;;
21430;SDS011;10876;49.038;10.608;2023-10-09T09:27:01;5.43;;;2.03;;
21430;SDS011;10876;49.038;10.608;2023-10-09T09:29:41;6.35;;;1.90;;
21430;SDS011;10876;49.038;10.608;2023-10-09T09:32:15;8.73;;;2.30;;
21430;SDS011;10876;49.038;10.608;2023-10-09T09:34:46;3.63;;;1.67;;
21430;SDS011;10876;49.038;10.608;2023-10-09T09:37:27;8.95;;;2.25;;
21430;SDS011;10876;49.038;10.608;2023-10-09T09:40:00;7.75;;;2.30;;
21430;SDS011;10876;49.038;10.608;2023-10-09T09:42:44;9.55;;;2.33;;
21430;SDS011;10876;49.038;10.608;2023-10-09T09:45:14;5.82;;;2.28;;
21430;SDS011;10876;49.038;10.608;2023-10-09T09:47:43;5.60;;;1.88;;
21430;SDS011;10876;49.038;10.608;2023-10-09T09:50:18;9.35;;;1.73;;
21430;SDS011;10876;49.038;10.608;2023-10-09T09:52:53;6.43;;;1.95;;
21430;SDS011;10876;49.038;10.608;2023-10-09T09:55:32;8.32;;;1.90;;
21430;SDS011;10876;49.038;10.608;2023-10-09T09:58:06;6.68;;;2.38;;
21430;SDS011;10876;49.038;10.608;2023-10-09T10:00:44;7.10;;;2.67;;
21430;SDS011;10876;49.038;10.608;2023-10-09T10:03:19;6.93;;;1.63;;
21430;SDS011;10876;49.038;10.608;2023-10-09T10:05:47;7.43;;;1.98;;
21430;SDS011;10876;49.038;10.608;2023-10-09T10:08:20;6.47;;;1.92;;
21430;SDS011;10876;49.038;10.608;2023-10-09T10:10:58;7.63;;;2.00;;
21430;SDS011;10876;49.038;10.608;2023-10-09T10:16:22;9.05;;;1.88;;
21430;SDS011;10876;49.038;10.608;2023-10-09T10:19:03;7.97;;;1.48;;
21430;SDS011;10876;49.038;10.608;2023-10-09T10:21:51;5.75;;;1.88;;
21430;SDS011;10876;49.038;10.608;2023-10-09T10:27:21;11.10;;;2.92;;
21430;SDS011;10876;49.038;10.608;2023-10-09T10:33:04;4.88;;;1.40;;
21430;SDS011;10876;49.038;10.608;2023-10-09T10:35:41;9.68;;;2.83;;
21430;SDS011;10876;49.038;10.608;2023-10-09T10:38:31;11.48;;;2.17;;
21430;SDS011;10876;49.038;10.608;2023-10-09T10:41:09;8.43;;;2.13;;
21430;SDS011;10876;49.038;10.608;2023-10-09T10:43:41;5.45;;;1.95;;
21430;SDS011;10876;49.038;10.608;2023-10-09T10:46:23;7.75;;;2.22;;
21430;SDS011;10876;49.038;10.608;2023-10-09T10:49:05;5.78;;;1.38;;
21430;SDS011;10876;49.038;10.608;2023-10-09T10:51:52;10.07;;;2.10;;
21430;SDS011;10876;49.038;10.608;2023-10-09T10:54:41;7.07;;;1.58;;
21430;SDS011;10876;49.038;10.608;2023-10-09T10:57:37;11.65;;;1.92;;
21430;SDS011;10876;49.038;10.608;2023-10-09T11:03:27;10.93;;;2.20;;
21430;SDS011;10876;49.038;10.608;2023-10-09T11:06:02;7.03;;;2.20;;
21430;SDS011;10876;49.038;10.608;2023-10-09T11:08:43;8.63;;;2.60;;
21430;SDS011;10876;49.038;10.608;2023-10-09T11:11:20;11.13;;;1.67;;
21430;SDS011;10876;49.038;10.608;2023-10-09T11:13:47;3.22;;;1.48;;
21430;SDS011;10876;49.038;10.608;2023-10-09T11:16:25;7.25;;;1.50;;
21430;SDS011;10876;49.038;10.608;2023-10-09T11:19:18;4.53;;;1.60;;
21430;SDS011;10876;49.038;10.608;2023-10-09T11:22:14;14.15;;;2.10;;
21430;SDS011;10876;49.038;10.608;2023-10-09T11:24:56;5.45;;;1.45;;
21430;SDS011;10876;49.038;10.608;2023-10-09T11:27:40;8.07;;;2.10;;
21430;SDS011;10876;49.038;10.608;2023-10-09T11:30:16;10.60;;;1.73;;
21430;SDS011;10876;49.038;10.608;2023-10-09T11:33:04;8.43;;;1.48;;
21430;SDS011;10876;49.038;10.608;2023-10-09T11:35:34;3.75;;;1.98;;
21430;SDS011;10876;49.038;10.608;2023-10-09T11:38:01;7.00;;;2.33;;
21430;SDS011;10876;49.038;10.608;2023-10-09T11:40:50;6.97;;;1.52;;
21430;SDS011;10876;49.038;10.608;2023-10-09T11:43:45;9.32;;;1.92;;
21430;SDS011;10876;49.038;10.608;2023-10-09T11:46:23;6.25;;;1.95;;
21430;SDS011;10876;49.038;10.608;2023-10-09T11:49:18;2.42;;;1.55;;
21430;SDS011;10876;49.038;10.608;2023-10-09T11:55:06;7.35;;;1.65;;
21430;SDS011;10876;49.038;10.608;2023-10-09T11:57:41;6.90;;;2.17;;
21430;SDS011;10876;49.038;10.608;2023-10-09T12:00:11;3.28;;;1.42;;
21430;SDS011;10876;49.038;10.608;2023-10-09T12:02:50;5.65;;;1.42;;
21430;SDS011;10876;49.038;10.608;2023-10-09T12:05:17;4.68;;;2.08;;
21430;SDS011;10876;49.038;10.608;2023-10-09T12:07:49;3.65;;;1.40;;
21430;SDS011;10876;49.038;10.608;2023-10-09T12:13:14;5.30;;;1.77;;
21430;SDS011;10876;49.038;10.608;2023-10-09T12:15:42;4.55;;;1.73;;
21430;SDS011;10876;49.038;10.608;2023-10-09T12:18:11;3.38;;;1.80;;
21430;SDS011;10876;49.038;10.608;2023-10-09T12:20:43;5.95;;;1.92;;
21430;SDS011;10876;49.038;10.608;2023-10-09T12:23:20;11.88;;;2.10;;
21430;SDS011;10876;49.038;10.608;2023-10-09T12:25:48;4.47;;;2.05;;
21430;SDS011;10876;49.038;10.608;2023-10-09T12:28:16;5.75;;;1.88;;
21430;SDS011;10876;49.038;10.608;2023-10-09T12:30:55;11.32;;;1.73;;
21430;SDS011;10876;49.038;10.608;2023-10-09T12:33:33;5.90;;;1.45;;
21430;SDS011;10876;49.038;10.608;2023-10-09T12:36:06;4.10;;;1.20;;
21430;SDS011;10876;49.038;10.608;2023-10-09T12:38:46;11.25;;;2.67;;
21430;SDS011;10876;49.038;10.608;2023-10-09T12:41:16;2.75;;;1.60;;
21430;SDS011;10876;49.038;10.608;2023-10-09T12:43:54;4.20;;;2.25;;
21430;SDS011;10876;49.038;10.608;2023-10-09T12:46:25;8.65;;;1.33;;
21430;SDS011;10876;49.038;10.608;2023-10-09T12:48:53;9.63;;;2.10;;
21430;SDS011;10876;49.038;10.608;2023-10-09T12:51:21;7.57;;;1.98;;
21430;SDS011;10876;49.038;10.608;2023-10-09T12:53:51;6.25;;;1.48;;
21430;SDS011;10876;49.038;10.608;2023-10-09T12:56:22;9.15;;;1.77;;
21430;SDS011;10876;49.038;10.608;2023-10-09T12:59:00;8.30;;;1.70;;
21430;SDS011;10876;49.038;10.608;2023-10-09T13:01:30;4.47;;;1.58;;
21430;SDS011;10876;49.038;10.608;2023-10-09T13:04:04;7.40;;;2.15;;
21430;SDS011;10876;49.038;10.608;2023-10-09T13:06:38;4.43;;;1.27;;
21430;SDS011;10876;49.038;10.608;2023-10-09T13:09:19;4.90;;;1.33;;
21430;SDS011;10876;49.038;10.608;2023-10-09T13:11:58;3.88;;;1.45;;
21430;SDS011;10876;49.038;10.608;2023-10-09T13:14:28;5.40;;;1.10;;
21430;SDS011;10876;49.038;10.608;2023-10-09T13:16:55;6.85;;;1.58;;
21430;SDS011;10876;49.038;10.608;2023-10-09T13:19:22;10.88;;;1.77;;
21430;SDS011;10876;49.038;10.608;2023-10-09T13:25:03;3.17;;;1.40;;
21430;SDS011;10876;49.038;10.608;2023-10-09T13:27:31;3.97;;;1.83;;
21430;SDS011;10876;49.038;10.608;2023-10-09T13:30:08;4.85;;;1.40;;
21430;SDS011;10876;49.038;10.608;2023-10-09T13:32:49;8.13;;;1.50;;
21430;SDS011;10876;49.038;10.608;2023-10-09T13:35:19;4.82;;;1.45;;
21430;SDS011;10876;49.038;10.608;2023-10-09T13:37:54;2.67;;;1.52;;
21430;SDS011;10876;49.038;10.608;2023-10-09T13:40:37;3.95;;;1.55;;
21430;SDS011;10876;49.038;10.608;2023-10-09T13:43:05;4.38;;;1.33;;
21430;SDS011;10876;49.038;10.608;2023-10-09T13:45:37;7.70;;;1.90;;
21430;SDS011;10876;49.038;10.608;2023-10-09T13:48:14;13.10;;;3.58;;
21430;SDS011;10876;49.038;10.608;2023-10-09T13:50:43;3.72;;;1.33;;
21430;SDS011;10876;49.038;10.608;2023-10-09T13:53:20;6.72;;;2.45;;
21430;SDS011;10876;49.038;10.608;2023-10-09T13:55:49;9.43;;;2.20;;
21430;SDS011;10876;49.038;10.608;2023-10-09T13:58:18;3.72;;;1.73;;
21430;SDS011;10876;49.038;10.608;2023-10-09T14:00:49;5.68;;;2.20;;
21430;SDS011;10876;49.038;10.608;2023-10-09T14:03:21;19.65;;;7.55;;
21430;SDS011;10876;49.038;10.608;2023-10-09T14:05:49;25.38;;;9.23;;
21430;SDS011;10876;49.038;10.608;2023-10-09T14:08:24;16.13;;;5.70;;
21430;SDS011;10876;49.038;10.608;2023-10-09T14:10:51;28.42;;;10.27;;
21430;SDS011;10876;49.038;10.608;2023-10-09T14:13:32;20.08;;;4.80;;
21430;SDS011;10876;49.038;10.608;2023-10-09T14:16:03;6.95;;;2.95;;
21430;SDS011;10876;49.038;10.608;2023-10-09T14:18:31;4.55;;;2.00;;
21430;SDS011;10876;49.038;10.608;2023-10-09T14:21:02;7.78;;;3.53;;
21430;SDS011;10876;49.038;10.608;2023-10-09T14:23:41;6.70;;;1.98;;
21430;SDS011;10876;49.038;10.608;2023-10-09T14:26:14;8.45;;;2.90;;
21430;SDS011;10876;49.038;10.608;2023-10-09T14:28:44;7.07;;;1.90;;
21430;SDS011;10876;49.038;10.608;2023-10-09T14:31:20;5.15;;;1.33;;
21430;SDS011;10876;49.038;10.608;2023-10-09T14:33:52;3.70;;;1.52;;
21430;SDS011;10876;49.038;10.608;2023-10-09T14:36:21;9.05;;;1.98;;
21430;SDS011;10876;49.038;10.608;2023-10-09T14:39:01;5.68;;;1.50;;
21430;SDS011;10876;49.038;10.608;2023-10-09T14:41:33;9.90;;;1.90;;
21430;SDS011;10876;49.038;10.608;2023-10-09T14:44:02;9.15;;;2.35;;
21430;SDS011;10876;49.038;10.608;2023-10-09T14:46:44;7.50;;;1.83;;
21430;SDS011;10876;49.038;10.608;2023-10-09T14:49:12;6.50;;;1.70;;
21430;SDS011;10876;49.038;10.608;2023-10-09T14:51:55;4.90;;;2.17;;
21430;SDS011;10876;49.038;10.608;2023-10-09T14:54:26;11.02;;;2.28;;
21430;SDS011;10876;49.038;10.608;2023-10-09T14:57:03;9.15;;;2.15;;
21430;SDS011;10876;49.038;10.608;2023-10-09T14:59:35;6.95;;;1.70;;
21430;SDS011;10876;49.038;10.608;2023-10-09T15:02:04;7.90;;;2.85;;
21430;SDS011;10876;49.038;10.608;2023-10-09T15:04:34;4.85;;;2.35;;
21430;SDS011;10876;49.038;10.608;2023-10-09T15:07:06;5.78;;;1.70;;
21430;SDS011;10876;49.038;10.608;2023-10-09T15:09:50;7.63;;;1.83;;
21430;SDS011;10876;49.038;10.608;2023-10-09T15:12:21;3.70;;;1.60;;
21430;SDS011;10876;49.038;10.608;2023-10-09T15:14:49;4.90;;;1.77;;
21430;SDS011;10876;49.038;10.608;2023-10-09T15:17:21;9.80;;;2.40;;
21430;SDS011;10876;49.038;10.608;2023-10-09T15:19:57;6.35;;;1.75;;
21430;SDS011;10876;49.038;10.608;2023-10-09T15:22:27;9.43;;;1.98;;
21430;SDS011;10876;49.038;10.608;2023-10-09T15:25:03;7.53;;;1.58;;
21430;SDS011;10876;49.038;10.608;2023-10-09T15:27:35;5.43;;;1.98;;
21430;SDS011;10876;49.038;10.608;2023-10-09T15:30:07;8.88;;;1.90;;
21430;SDS011;10876;49.038;10.608;2023-10-09T15:32:42;5.72;;;1.70;;
21430;SDS011;10876;49.038;10.608;2023-10-09T15:35:10;6.65;;;1.80;;
21430;SDS011;10876;49.038;10.608;2023-10-09T15:37:39;6.65;;;1.65;;
21430;SDS011;10876;49.038;10.608;2023-10-09T15:40:11;3.17;;;1.30;;
21430;SDS011;10876;49.038;10.608;2023-10-09T15:42:44;9.00;;;2.17;;
21430;SDS011;10876;49.038;10.608;2023-10-09T15:45:15;7.47;;;2.47;;
21430;SDS011;10876;49.038;10.608;2023-10-09T15:47:49;9.13;;;2.50;;
21430;SDS011;10876;49.038;10.608;2023-10-09T15:50:20;4.55;;;2.15;;
21430;SDS011;10876;49.038;10.608;2023-10-09T15:52:49;9.70;;;2.00;;
21430;SDS011;10876;49.038;10.608;2023-10-09T15:55:20;8.18;;;2.30;;
21430;SDS011;10876;49.038;10.608;2023-10-09T15:57:51;6.32;;;2.42;;
21430;SDS011;10876;49.038;10.608;2023-10-09T16:00:21;6.28;;;1.95;;
21430;SDS011;10876;49.038;10.608;2023-10-09T16:02:58;3.55;;;1.85;;